sensor_id;sensor_type;location;lat;lon;timestamp;temperature;humidity
27795;DHT22;15176;50.844;4.412;2023-01-01T00:00:26;16.40;98.10
27795;DHT22;15176;50.844;4.412;2023-01-01T00:02:52;16.30;98.10
27795;DHT22;15176;50.844;4.412;2023-01-01T00:05:18;16.20;98.40
27795;DHT22;15176;50.844;4.412;2023-01-01T00:07:45;16.20;98.60
27795;DHT22;15176;50.844;4.412;2023-01-01T00:10:10;16.30;97.90
27795;DHT22;15176;50.844;4.412;2023-01-01T00:12:58;16.30;98.20
27795;DHT22;15176;50.844;4.412;2023-01-01T00:15:24;16.30;97.80
27795;DHT22;15176;50.844;4.412;2023-01-01T00:17:50;16.10;98.40
27795;DHT22;15176;50.844;4.412;2023-01-01T00:20:17;16.10;98.80
27795;DHT22;15176;50.844;4.412;2023-01-01T00:22:43;16.20;98.70
27795;DHT22;15176;50.844;4.412;2023-01-01T00:25:10;16.20;98.70
27795;DHT22;15176;50.844;4.412;2023-01-01T00:27:46;16.40;98.20
27795;DHT22;15176;50.844;4.412;2023-01-01T00:30:15;16.30;98.20
27795;DHT22;15176;50.844;4.412;2023-01-01T00:32:40;16.10;99.10
27795;DHT22;15176;50.844;4.412;2023-01-01T00:35:10;16.00;99.30
27795;DHT22;15176;50.844;4.412;2023-01-01T00:37:35;15.90;99.90
27795;DHT22;15176;50.844;4.412;2023-01-01T00:40:01;16.10;99.50
27795;DHT22;15176;50.844;4.412;2023-01-01T00:42:27;16.00;99.30
27795;DHT22;15176;50.844;4.412;2023-01-01T00:44:53;16.00;99.50
27795;DHT22;15176;50.844;4.412;2023-01-01T00:47:19;16.00;99.50
27795;DHT22;15176;50.844;4.412;2023-01-01T00:49:44;15.90;99.80
27795;DHT22;15176;50.844;4.412;2023-01-01T00:52:10;15.90;99.40
27795;DHT22;15176;50.844;4.412;2023-01-01T00:54:38;16.20;99.20
27795;DHT22;15176;50.844;4.412;2023-01-01T00:57:04;16.10;98.80
27795;DHT22;15176;50.844;4.412;2023-01-01T00:59:30;16.20;98.90
27795;DHT22;15176;50.844;4.412;2023-01-01T01:01:56;16.10;98.60
27795;DHT22;15176;50.844;4.412;2023-01-01T01:04:22;16.20;98.70
27795;DHT22;15176;50.844;4.412;2023-01-01T01:06:47;16.00;99.40
27795;DHT22;15176;50.844;4.412;2023-01-01T01:09:13;16.00;99.00
27795;DHT22;15176;50.844;4.412;2023-01-01T01:11:39;15.90;99.40
27795;DHT22;15176;50.844;4.412;2023-01-01T01:14:07;16.10;99.00
27795;DHT22;15176;50.844;4.412;2023-01-01T01:16:33;16.20;98.90
27795;DHT22;15176;50.844;4.412;2023-01-01T01:19:01;16.10;99.20
27795;DHT22;15176;50.844;4.412;2023-01-01T01:21:30;16.10;98.90
27795;DHT22;15176;50.844;4.412;2023-01-01T01:23:58;16.20;99.00
27795;DHT22;15176;50.844;4.412;2023-01-01T01:26:26;16.20;99.20
27795;DHT22;15176;50.844;4.412;2023-01-01T01:29:00;16.10;99.60
27795;DHT22;15176;50.844;4.412;2023-01-01T01:31:29;15.80;99.90
27795;DHT22;15176;50.844;4.412;2023-01-01T01:33:55;15.90;99.90
27795;DHT22;15176;50.844;4.412;2023-01-01T01:36:25;15.90;99.90
27795;DHT22;15176;50.844;4.412;2023-01-01T01:38:51;15.90;99.90
27795;DHT22;15176;50.844;4.412;2023-01-01T01:41:20;16.00;99.90
27795;DHT22;15176;50.844;4.412;2023-01-01T01:43:54;16.10;99.90
27795;DHT22;15176;50.844;4.412;2023-01-01T01:46:37;16.00;99.90
27795;DHT22;15176;50.844;4.412;2023-01-01T01:49:26;15.90;99.90
27795;DHT22;15176;50.844;4.412;2023-01-01T01:51:52;16.00;99.90
27795;DHT22;15176;50.844;4.412;2023-01-01T01:54:21;16.00;99.90
27795;DHT22;15176;50.844;4.412;2023-01-01T01:56:54;16.10;99.90
27795;DHT22;15176;50.844;4.412;2023-01-01T01:59:25;16.00;99.90
27795;DHT22;15176;50.844;4.412;2023-01-01T02:01:52;16.00;99.90
27795;DHT22;15176;50.844;4.412;2023-01-01T02:04:18;16.00;99.90
27795;DHT22;15176;50.844;4.412;2023-01-01T02:06:44;16.10;99.90
27795;DHT22;15176;50.844;4.412;2023-01-01T02:09:12;16.10;99.90
27795;DHT22;15176;50.844;4.412;2023-01-01T02:11:38;16.10;99.90
27795;DHT22;15176;50.844;4.412;2023-01-01T02:14:04;16.10;99.90
27795;DHT22;15176;50.844;4.412;2023-01-01T02:19:23;16.00;99.90
27795;DHT22;15176;50.844;4.412;2023-01-01T02:21:58;15.80;99.90
27795;DHT22;15176;50.844;4.412;2023-01-01T02:24:50;15.80;99.90
27795;DHT22;15176;50.844;4.412;2023-01-01T02:27:30;15.90;99.90
27795;DHT22;15176;50.844;4.412;2023-01-01T02:30:04;15.80;99.90
27795;DHT22;15176;50.844;4.412;2023-01-01T02:32:43;15.80;99.90
27795;DHT22;15176;50.844;4.412;2023-01-01T02:35:18;15.80;99.90
27795;DHT22;15176;50.844;4.412;2023-01-01T02:41:03;15.40;99.90
27795;DHT22;15176;50.844;4.412;2023-01-01T02:43:30;15.60;99.90
27795;DHT22;15176;50.844;4.412;2023-01-01T02:45:56;15.60;99.90
27795;DHT22;15176;50.844;4.412;2023-01-01T02:48:45;15.70;99.90
27795;DHT22;15176;50.844;4.412;2023-01-01T02:56:54;15.60;99.90
27795;DHT22;15176;50.844;4.412;2023-01-01T03:05:23;15.70;99.90
27795;DHT22;15176;50.844;4.412;2023-01-01T03:10:54;15.60;99.90
27795;DHT22;15176;50.844;4.412;2023-01-01T03:16:17;15.50;99.90
27795;DHT22;15176;50.844;4.412;2023-01-01T03:24:35;15.50;99.90
27795;DHT22;15176;50.844;4.412;2023-01-01T03:27:07;15.50;99.90
27795;DHT22;15176;50.844;4.412;2023-01-01T03:29:39;15.50;99.90
27795;DHT22;15176;50.844;4.412;2023-01-01T03:32:07;15.30;99.90
27795;DHT22;15176;50.844;4.412;2023-01-01T03:34:40;15.40;99.90
27795;DHT22;15176;50.844;4.412;2023-01-01T03:37:11;15.50;99.90
27795;DHT22;15176;50.844;4.412;2023-01-01T03:39:46;15.50;99.90
27795;DHT22;15176;50.844;4.412;2023-01-01T03:44:59;15.30;99.90
27795;DHT22;15176;50.844;4.412;2023-01-01T03:47:28;15.30;99.90
27795;DHT22;15176;50.844;4.412;2023-01-01T03:49:54;15.20;99.90
27795;DHT22;15176;50.844;4.412;2023-01-01T03:52:36;15.20;99.90
27795;DHT22;15176;50.844;4.412;2023-01-01T03:55:18;15.10;99.90
27795;DHT22;15176;50.844;4.412;2023-01-01T03:57:53;15.20;99.90
27795;DHT22;15176;50.844;4.412;2023-01-01T04:00:22;14.90;99.90
27795;DHT22;15176;50.844;4.412;2023-01-01T04:03:02;14.90;99.90
27795;DHT22;15176;50.844;4.412;2023-01-01T04:05:30;14.90;99.90
27795;DHT22;15176;50.844;4.412;2023-01-01T04:08:00;15.00;99.90
27795;DHT22;15176;50.844;4.412;2023-01-01T04:10:28;14.90;99.90
27795;DHT22;15176;50.844;4.412;2023-01-01T04:12:56;14.80;99.90
27795;DHT22;15176;50.844;4.412;2023-01-01T04:15:24;14.70;99.90
27795;DHT22;15176;50.844;4.412;2023-01-01T04:17:51;14.90;99.90
27795;DHT22;15176;50.844;4.412;2023-01-01T04:20:18;14.90;99.90
27795;DHT22;15176;50.844;4.412;2023-01-01T04:22:44;14.90;99.90
27795;DHT22;15176;50.844;4.412;2023-01-01T04:25:10;14.90;99.90
27795;DHT22;15176;50.844;4.412;2023-01-01T04:27:37;15.00;99.90
27795;DHT22;15176;50.844;4.412;2023-01-01T04:30:05;15.00;99.90
27795;DHT22;15176;50.844;4.412;2023-01-01T04:32:31;14.70;99.90
27795;DHT22;15176;50.844;4.412;2023-01-01T04:34:57;14.70;99.90
27795;DHT22;15176;50.844;4.412;2023-01-01T04:37:22;14.80;99.90
27795;DHT22;15176;50.844;4.412;2023-01-01T04:39:48;14.90;99.90
27795;DHT22;15176;50.844;4.412;2023-01-01T04:42:14;15.10;99.90
27795;DHT22;15176;50.844;4.412;2023-01-01T04:44:40;14.80;99.90
27795;DHT22;15176;50.844;4.412;2023-01-01T04:47:06;15.00;99.90
27795;DHT22;15176;50.844;4.412;2023-01-01T04:49:31;15.00;99.90
27795;DHT22;15176;50.844;4.412;2023-01-01T04:51:57;15.00;99.90
27795;DHT22;15176;50.844;4.412;2023-01-01T04:54:23;14.90;99.90
27795;DHT22;15176;50.844;4.412;2023-01-01T04:56:49;14.90;99.90
27795;DHT22;15176;50.844;4.412;2023-01-01T04:59:16;14.70;99.90
27795;DHT22;15176;50.844;4.412;2023-01-01T05:01:42;14.80;99.90
27795;DHT22;15176;50.844;4.412;2023-01-01T05:04:11;15.00;99.90
27795;DHT22;15176;50.844;4.412;2023-01-01T05:06:41;15.00;99.90
27795;DHT22;15176;50.844;4.412;2023-01-01T05:09:09;15.10;99.90
27795;DHT22;15176;50.844;4.412;2023-01-01T05:11:35;15.10;99.90
27795;DHT22;15176;50.844;4.412;2023-01-01T05:14:02;15.20;99.90
27795;DHT22;15176;50.844;4.412;2023-01-01T05:16:30;15.00;99.90
27795;DHT22;15176;50.844;4.412;2023-01-01T05:18:57;15.10;99.90
27795;DHT22;15176;50.844;4.412;2023-01-01T05:21:25;14.80;99.90
27795;DHT22;15176;50.844;4.412;2023-01-01T05:23:55;15.00;99.90
27795;DHT22;15176;50.844;4.412;2023-01-01T05:26:23;15.20;99.90
27795;DHT22;15176;50.844;4.412;2023-01-01T05:28:49;15.20;99.90
27795;DHT22;15176;50.844;4.412;2023-01-01T05:31:18;15.20;99.90
27795;DHT22;15176;50.844;4.412;2023-01-01T05:33:44;15.30;99.90
27795;DHT22;15176;50.844;4.412;2023-01-01T05:36:17;15.30;99.90
27795;DHT22;15176;50.844;4.412;2023-01-01T05:38:43;15.20;99.90
27795;DHT22;15176;50.844;4.412;2023-01-01T05:41:11;15.00;99.90
27795;DHT22;15176;50.844;4.412;2023-01-01T05:43:38;14.90;99.90
27795;DHT22;15176;50.844;4.412;2023-01-01T05:46:10;15.20;99.90
27795;DHT22;15176;50.844;4.412;2023-01-01T05:48:36;15.20;99.90
27795;DHT22;15176;50.844;4.412;2023-01-01T05:51:17;15.20;99.90
27795;DHT22;15176;50.844;4.412;2023-01-01T05:53:43;15.10;99.90
27795;DHT22;15176;50.844;4.412;2023-01-01T05:56:10;15.30;99.90
27795;DHT22;15176;50.844;4.412;2023-01-01T05:58:36;15.30;99.90
27795;DHT22;15176;50.844;4.412;2023-01-01T06:01:07;15.20;99.90
27795;DHT22;15176;50.844;4.412;2023-01-01T06:03:33;15.20;99.90
27795;DHT22;15176;50.844;4.412;2023-01-01T06:06:03;15.00;99.90
27795;DHT22;15176;50.844;4.412;2023-01-01T06:08:29;14.80;99.90
27795;DHT22;15176;50.844;4.412;2023-01-01T06:11:04;15.00;99.90
27795;DHT22;15176;50.844;4.412;2023-01-01T06:13:31;14.80;99.90
27795;DHT22;15176;50.844;4.412;2023-01-01T06:15:58;14.80;99.90
27795;DHT22;15176;50.844;4.412;2023-01-01T06:18:25;14.60;99.90
27795;DHT22;15176;50.844;4.412;2023-01-01T06:20:51;14.50;99.90
27795;DHT22;15176;50.844;4.412;2023-01-01T06:23:17;14.60;99.90
27795;DHT22;15176;50.844;4.412;2023-01-01T06:25:43;14.70;99.90
27795;DHT22;15176;50.844;4.412;2023-01-01T06:28:09;14.80;99.90
27795;DHT22;15176;50.844;4.412;2023-01-01T06:30:35;14.90;99.90
27795;DHT22;15176;50.844;4.412;2023-01-01T06:33:02;14.70;99.90
27795;DHT22;15176;50.844;4.412;2023-01-01T06:35:29;14.50;99.90
27795;DHT22;15176;50.844;4.412;2023-01-01T06:37:54;14.70;99.90
27795;DHT22;15176;50.844;4.412;2023-01-01T06:40:22;14.90;99.90
27795;DHT22;15176;50.844;4.412;2023-01-01T06:42:48;14.80;99.90
27795;DHT22;15176;50.844;4.412;2023-01-01T06:45:14;14.80;99.90
27795;DHT22;15176;50.844;4.412;2023-01-01T06:47:39;14.80;99.90
27795;DHT22;15176;50.844;4.412;2023-01-01T06:50:05;14.90;99.90
27795;DHT22;15176;50.844;4.412;2023-01-01T06:52:31;14.90;99.90
27795;DHT22;15176;50.844;4.412;2023-01-01T06:54:57;14.80;99.90
27795;DHT22;15176;50.844;4.412;2023-01-01T06:57:23;14.70;99.90
27795;DHT22;15176;50.844;4.412;2023-01-01T06:59:49;14.50;99.90
27795;DHT22;15176;50.844;4.412;2023-01-01T07:02:14;14.60;99.90
27795;DHT22;15176;50.844;4.412;2023-01-01T07:04:40;14.50;99.90
27795;DHT22;15176;50.844;4.412;2023-01-01T07:07:05;14.60;99.90
27795;DHT22;15176;50.844;4.412;2023-01-01T07:09:31;14.60;99.90
27795;DHT22;15176;50.844;4.412;2023-01-01T07:11:57;14.70;99.90
27795;DHT22;15176;50.844;4.412;2023-01-01T07:14:23;14.50;99.90
27795;DHT22;15176;50.844;4.412;2023-01-01T07:16:48;14.30;99.90
27795;DHT22;15176;50.844;4.412;2023-01-01T07:19:14;14.20;99.90
27795;DHT22;15176;50.844;4.412;2023-01-01T07:21:43;14.40;99.90
27795;DHT22;15176;50.844;4.412;2023-01-01T07:24:14;14.50;99.90
27795;DHT22;15176;50.844;4.412;2023-01-01T07:26:40;14.30;99.90
27795;DHT22;15176;50.844;4.412;2023-01-01T07:29:06;14.30;99.90
27795;DHT22;15176;50.844;4.412;2023-01-01T07:31:36;14.60;99.90
27795;DHT22;15176;50.844;4.412;2023-01-01T07:34:01;14.60;99.90
27795;DHT22;15176;50.844;4.412;2023-01-01T07:36:27;14.70;99.90
27795;DHT22;15176;50.844;4.412;2023-01-01T07:38:54;14.70;99.90
27795;DHT22;15176;50.844;4.412;2023-01-01T07:41:19;14.40;99.90
27795;DHT22;15176;50.844;4.412;2023-01-01T07:43:46;14.30;99.90
27795;DHT22;15176;50.844;4.412;2023-01-01T07:46:12;14.40;99.90
27795;DHT22;15176;50.844;4.412;2023-01-01T07:48:41;14.30;99.90
27795;DHT22;15176;50.844;4.412;2023-01-01T07:51:06;14.50;99.90
27795;DHT22;15176;50.844;4.412;2023-01-01T07:53:32;14.50;99.90
27795;DHT22;15176;50.844;4.412;2023-01-01T07:55:58;14.30;99.90
27795;DHT22;15176;50.844;4.412;2023-01-01T07:58:23;14.40;99.90
27795;DHT22;15176;50.844;4.412;2023-01-01T08:00:49;14.40;99.90
27795;DHT22;15176;50.844;4.412;2023-01-01T08:03:15;14.30;99.90
27795;DHT22;15176;50.844;4.412;2023-01-01T08:05:42;14.00;99.90
27795;DHT22;15176;50.844;4.412;2023-01-01T08:08:08;14.10;99.90
27795;DHT22;15176;50.844;4.412;2023-01-01T08:10:34;14.00;99.90
27795;DHT22;15176;50.844;4.412;2023-01-01T08:13:03;14.10;99.90
27795;DHT22;15176;50.844;4.412;2023-01-01T08:15:29;14.30;99.90
27795;DHT22;15176;50.844;4.412;2023-01-01T08:18:00;14.30;99.90
27795;DHT22;15176;50.844;4.412;2023-01-01T08:20:27;14.40;99.90
27795;DHT22;15176;50.844;4.412;2023-01-01T08:22:53;14.40;99.90
27795;DHT22;15176;50.844;4.412;2023-01-01T08:25:19;14.30;99.90
27795;DHT22;15176;50.844;4.412;2023-01-01T08:27:46;14.20;99.90
27795;DHT22;15176;50.844;4.412;2023-01-01T08:30:13;14.20;99.90
27795;DHT22;15176;50.844;4.412;2023-01-01T08:32:39;14.20;99.90
27795;DHT22;15176;50.844;4.412;2023-01-01T08:35:06;14.30;99.90
27795;DHT22;15176;50.844;4.412;2023-01-01T08:37:31;14.30;99.90
27795;DHT22;15176;50.844;4.412;2023-01-01T08:39:57;14.10;99.90
27795;DHT22;15176;50.844;4.412;2023-01-01T08:42:23;14.40;99.90
27795;DHT22;15176;50.844;4.412;2023-01-01T08:44:49;14.20;99.90
27795;DHT22;15176;50.844;4.412;2023-01-01T08:47:22;14.20;99.90
27795;DHT22;15176;50.844;4.412;2023-01-01T08:49:48;14.30;99.90
27795;DHT22;15176;50.844;4.412;2023-01-01T08:52:15;14.50;99.90
27795;DHT22;15176;50.844;4.412;2023-01-01T08:54:41;14.30;99.90
27795;DHT22;15176;50.844;4.412;2023-01-01T08:57:07;14.30;99.90
27795;DHT22;15176;50.844;4.412;2023-01-01T08:59:32;14.30;99.90
27795;DHT22;15176;50.844;4.412;2023-01-01T09:01:58;14.40;99.90
27795;DHT22;15176;50.844;4.412;2023-01-01T09:04:24;14.60;99.90
27795;DHT22;15176;50.844;4.412;2023-01-01T09:06:50;14.70;99.90
27795;DHT22;15176;50.844;4.412;2023-01-01T09:09:16;14.60;99.90
27795;DHT22;15176;50.844;4.412;2023-01-01T09:11:50;14.60;99.90
27795;DHT22;15176;50.844;4.412;2023-01-01T09:14:16;14.50;99.90
27795;DHT22;15176;50.844;4.412;2023-01-01T09:16:41;14.50;99.90
27795;DHT22;15176;50.844;4.412;2023-01-01T09:19:07;14.50;99.90
27795;DHT22;15176;50.844;4.412;2023-01-01T09:21:33;14.40;99.90
27795;DHT22;15176;50.844;4.412;2023-01-01T09:23:59;14.60;99.90
27795;DHT22;15176;50.844;4.412;2023-01-01T09:26:24;14.60;99.90
27795;DHT22;15176;50.844;4.412;2023-01-01T09:28:50;14.60;99.90
27795;DHT22;15176;50.844;4.412;2023-01-01T09:31:16;14.60;99.90
27795;DHT22;15176;50.844;4.412;2023-01-01T09:33:42;14.80;99.90
27795;DHT22;15176;50.844;4.412;2023-01-01T09:36:31;14.70;99.90
27795;DHT22;15176;50.844;4.412;2023-01-01T09:38:58;14.90;99.90
27795;DHT22;15176;50.844;4.412;2023-01-01T09:47:25;14.90;99.90
27795;DHT22;15176;50.844;4.412;2023-01-01T09:49:53;15.00;99.90
27795;DHT22;15176;50.844;4.412;2023-01-01T09:52:21;14.80;99.90
27795;DHT22;15176;50.844;4.412;2023-01-01T09:57:17;14.80;99.90
27795;DHT22;15176;50.844;4.412;2023-01-01T09:59:43;14.80;99.90
27795;DHT22;15176;50.844;4.412;2023-01-01T10:02:34;14.90;99.90
27795;DHT22;15176;50.844;4.412;2023-01-01T10:05:25;14.80;99.90
27795;DHT22;15176;50.844;4.412;2023-01-01T10:13:39;14.80;99.90
27795;DHT22;15176;50.844;4.412;2023-01-01T10:16:42;14.70;99.90
27795;DHT22;15176;50.844;4.412;2023-01-01T10:21:50;15.20;99.90
27795;DHT22;15176;50.844;4.412;2023-01-01T10:27:05;14.90;99.90
27795;DHT22;15176;50.844;4.412;2023-01-01T10:29:43;15.00;99.90
27795;DHT22;15176;50.844;4.412;2023-01-01T10:32:17;15.10;99.90
27795;DHT22;15176;50.844;4.412;2023-01-01T10:34:44;15.20;99.90
27795;DHT22;15176;50.844;4.412;2023-01-01T10:37:10;15.50;99.90
27795;DHT22;15176;50.844;4.412;2023-01-01T10:39:38;15.30;99.90
27795;DHT22;15176;50.844;4.412;2023-01-01T10:42:04;15.40;99.90
27795;DHT22;15176;50.844;4.412;2023-01-01T10:44:32;15.40;99.90
27795;DHT22;15176;50.844;4.412;2023-01-01T10:47:03;15.60;99.90
27795;DHT22;15176;50.844;4.412;2023-01-01T10:49:32;15.50;99.90
27795;DHT22;15176;50.844;4.412;2023-01-01T10:51:58;15.50;99.90
27795;DHT22;15176;50.844;4.412;2023-01-01T10:54:39;15.60;99.90
27795;DHT22;15176;50.844;4.412;2023-01-01T10:57:35;15.80;99.90
27795;DHT22;15176;50.844;4.412;2023-01-01T11:00:26;15.90;99.90
27795;DHT22;15176;50.844;4.412;2023-01-01T11:03:20;15.80;99.90
27795;DHT22;15176;50.844;4.412;2023-01-01T11:08:54;15.70;99.90
27795;DHT22;15176;50.844;4.412;2023-01-01T11:11:27;15.70;99.90
27795;DHT22;15176;50.844;4.412;2023-01-01T11:13:56;15.80;99.90
27795;DHT22;15176;50.844;4.412;2023-01-01T11:16:25;16.00;99.90
27795;DHT22;15176;50.844;4.412;2023-01-01T11:19:03;16.30;99.90
27795;DHT22;15176;50.844;4.412;2023-01-01T11:21:30;16.20;99.90
27795;DHT22;15176;50.844;4.412;2023-01-01T11:24:18;16.20;99.90
27795;DHT22;15176;50.844;4.412;2023-01-01T11:26:44;16.50;99.90
27795;DHT22;15176;50.844;4.412;2023-01-01T11:31:40;16.90;99.90
27795;DHT22;15176;50.844;4.412;2023-01-01T11:37:27;16.60;99.90
27795;DHT22;15176;50.844;4.412;2023-01-01T11:39:56;16.70;99.90
27795;DHT22;15176;50.844;4.412;2023-01-01T11:42:27;16.30;99.90
27795;DHT22;15176;50.844;4.412;2023-01-01T11:45:10;16.30;99.90
27795;DHT22;15176;50.844;4.412;2023-01-01T11:47:40;16.40;99.90
27795;DHT22;15176;50.844;4.412;2023-01-01T11:50:18;16.40;99.90
27795;DHT22;15176;50.844;4.412;2023-01-01T11:52:50;16.30;99.90
27795;DHT22;15176;50.844;4.412;2023-01-01T11:55:36;16.10;99.90
27795;DHT22;15176;50.844;4.412;2023-01-01T12:00:59;16.20;99.90
27795;DHT22;15176;50.844;4.412;2023-01-01T12:03:28;15.90;99.90
27795;DHT22;15176;50.844;4.412;2023-01-01T12:06:30;15.80;99.90
27795;DHT22;15176;50.844;4.412;2023-01-01T12:09:21;15.70;99.90
27795;DHT22;15176;50.844;4.412;2023-01-01T12:11:51;15.70;99.90
27795;DHT22;15176;50.844;4.412;2023-01-01T12:14:29;15.70;99.90
27795;DHT22;15176;50.844;4.412;2023-01-01T12:17:01;15.80;99.90
27795;DHT22;15176;50.844;4.412;2023-01-01T12:21:58;16.00;99.90
27795;DHT22;15176;50.844;4.412;2023-01-01T12:24:32;15.80;99.90
27795;DHT22;15176;50.844;4.412;2023-01-01T12:46:14;15.70;99.90
27795;DHT22;15176;50.844;4.412;2023-01-01T12:48:51;15.40;99.90
27795;DHT22;15176;50.844;4.412;2023-01-01T12:59:38;15.00;99.90
27795;DHT22;15176;50.844;4.412;2023-01-01T13:02:19;15.20;99.90
27795;DHT22;15176;50.844;4.412;2023-01-01T13:04:49;15.30;99.90
27795;DHT22;15176;50.844;4.412;2023-01-01T13:07:30;15.20;99.90
27795;DHT22;15176;50.844;4.412;2023-01-01T13:10:06;15.10;99.90
27795;DHT22;15176;50.844;4.412;2023-01-01T13:12:34;14.90;99.90
27795;DHT22;15176;50.844;4.412;2023-01-01T13:20:59;15.10;99.90
27795;DHT22;15176;50.844;4.412;2023-01-01T13:45:28;14.80;99.90
27795;DHT22;15176;50.844;4.412;2023-01-01T13:48:53;14.60;99.90
27795;DHT22;15176;50.844;4.412;2023-01-01T13:56:57;14.60;99.90
27795;DHT22;15176;50.844;4.412;2023-01-01T14:02:22;14.70;99.90
27795;DHT22;15176;50.844;4.412;2023-01-01T14:04:59;14.70;99.90
27795;DHT22;15176;50.844;4.412;2023-01-01T14:10:21;14.40;99.90
27795;DHT22;15176;50.844;4.412;2023-01-01T14:12:47;14.30;99.90
27795;DHT22;15176;50.844;4.412;2023-01-01T14:15:15;14.20;99.90
27795;DHT22;15176;50.844;4.412;2023-01-01T14:17:42;14.30;99.90
27795;DHT22;15176;50.844;4.412;2023-01-01T14:20:14;14.10;99.90
27795;DHT22;15176;50.844;4.412;2023-01-01T14:22:44;14.40;99.90
27795;DHT22;15176;50.844;4.412;2023-01-01T14:25:15;14.70;99.90
27795;DHT22;15176;50.844;4.412;2023-01-01T14:27:44;14.30;99.90
27795;DHT22;15176;50.844;4.412;2023-01-01T14:30:17;14.20;99.90
27795;DHT22;15176;50.844;4.412;2023-01-01T14:32:43;14.20;99.90
27795;DHT22;15176;50.844;4.412;2023-01-01T14:35:13;14.20;99.90
27795;DHT22;15176;50.844;4.412;2023-01-01T14:37:40;14.30;99.90
27795;DHT22;15176;50.844;4.412;2023-01-01T14:40:24;14.40;99.90
27795;DHT22;15176;50.844;4.412;2023-01-01T14:43:05;14.20;99.90
27795;DHT22;15176;50.844;4.412;2023-01-01T14:45:41;14.50;99.90
27795;DHT22;15176;50.844;4.412;2023-01-01T14:48:17;14.30;99.90
27795;DHT22;15176;50.844;4.412;2023-01-01T14:50:47;14.20;99.90
27795;DHT22;15176;50.844;4.412;2023-01-01T14:53:16;14.30;99.90
27795;DHT22;15176;50.844;4.412;2023-01-01T14:55:46;14.30;99.90
27795;DHT22;15176;50.844;4.412;2023-01-01T14:58:26;14.60;99.90
27795;DHT22;15176;50.844;4.412;2023-01-01T15:00:53;14.50;99.90
27795;DHT22;15176;50.844;4.412;2023-01-01T15:03:21;14.20;99.90
27795;DHT22;15176;50.844;4.412;2023-01-01T15:05:58;14.10;99.90
27795;DHT22;15176;50.844;4.412;2023-01-01T15:08:25;14.20;99.90
27795;DHT22;15176;50.844;4.412;2023-01-01T15:10:52;14.20;99.90
27795;DHT22;15176;50.844;4.412;2023-01-01T15:13:22;14.20;99.90
27795;DHT22;15176;50.844;4.412;2023-01-01T15:15:50;14.40;99.90
27795;DHT22;15176;50.844;4.412;2023-01-01T15:18:39;14.40;99.90
27795;DHT22;15176;50.844;4.412;2023-01-01T15:21:16;14.40;99.90
27795;DHT22;15176;50.844;4.412;2023-01-01T15:26:53;14.00;99.90
27795;DHT22;15176;50.844;4.412;2023-01-01T15:29:34;13.80;99.90
27795;DHT22;15176;50.844;4.412;2023-01-01T15:32:12;13.80;99.90
27795;DHT22;15176;50.844;4.412;2023-01-01T15:37:49;14.00;99.90
27795;DHT22;15176;50.844;4.412;2023-01-01T15:42:41;13.80;99.90
27795;DHT22;15176;50.844;4.412;2023-01-01T15:45:31;13.70;99.90
27795;DHT22;15176;50.844;4.412;2023-01-01T15:50:40;13.90;99.90
27795;DHT22;15176;50.844;4.412;2023-01-01T15:53:25;13.90;99.90
27795;DHT22;15176;50.844;4.412;2023-01-01T15:56:03;13.70;99.90
27795;DHT22;15176;50.844;4.412;2023-01-01T15:59:00;13.50;99.90
27795;DHT22;15176;50.844;4.412;2023-01-01T16:01:28;13.50;99.90
27795;DHT22;15176;50.844;4.412;2023-01-01T16:06:43;13.60;99.90
27795;DHT22;15176;50.844;4.412;2023-01-01T16:09:13;13.70;99.90
27795;DHT22;15176;50.844;4.412;2023-01-01T16:11:40;13.50;99.90
27795;DHT22;15176;50.844;4.412;2023-01-01T16:14:06;13.50;99.90
27795;DHT22;15176;50.844;4.412;2023-01-01T16:16:32;13.30;99.90
27795;DHT22;15176;50.844;4.412;2023-01-01T16:18:58;13.50;99.90
27795;DHT22;15176;50.844;4.412;2023-01-01T16:21:26;13.40;99.90
27795;DHT22;15176;50.844;4.412;2023-01-01T16:23:54;13.60;99.90
27795;DHT22;15176;50.844;4.412;2023-01-01T16:26:21;13.60;99.90
27795;DHT22;15176;50.844;4.412;2023-01-01T16:28:49;13.80;99.90
27795;DHT22;15176;50.844;4.412;2023-01-01T16:31:16;13.60;99.90
27795;DHT22;15176;50.844;4.412;2023-01-01T16:33:50;13.40;99.90
27795;DHT22;15176;50.844;4.412;2023-01-01T16:36:16;13.30;99.90
27795;DHT22;15176;50.844;4.412;2023-01-01T16:38:42;13.20;99.90
27795;DHT22;15176;50.844;4.412;2023-01-01T16:41:15;13.40;99.90
27795;DHT22;15176;50.844;4.412;2023-01-01T16:43:42;13.30;99.90
27795;DHT22;15176;50.844;4.412;2023-01-01T16:46:10;13.30;99.90
27795;DHT22;15176;50.844;4.412;2023-01-01T16:48:37;13.30;99.90
27795;DHT22;15176;50.844;4.412;2023-01-01T16:51:03;13.40;99.90
27795;DHT22;15176;50.844;4.412;2023-01-01T16:53:30;13.60;99.90
27795;DHT22;15176;50.844;4.412;2023-01-01T16:55:57;13.80;99.90
27795;DHT22;15176;50.844;4.412;2023-01-01T16:58:23;13.80;99.90
27795;DHT22;15176;50.844;4.412;2023-01-01T17:00:49;13.60;99.90
27795;DHT22;15176;50.844;4.412;2023-01-01T17:03:14;13.40;99.90
27795;DHT22;15176;50.844;4.412;2023-01-01T17:05:41;13.20;99.90
27795;DHT22;15176;50.844;4.412;2023-01-01T17:08:07;13.20;99.90
27795;DHT22;15176;50.844;4.412;2023-01-01T17:10:32;13.10;99.90
27795;DHT22;15176;50.844;4.412;2023-01-01T17:12:58;12.90;99.90
27795;DHT22;15176;50.844;4.412;2023-01-01T17:15:27;13.00;99.90
27795;DHT22;15176;50.844;4.412;2023-01-01T17:17:53;13.00;99.90
27795;DHT22;15176;50.844;4.412;2023-01-01T17:20:20;13.00;99.90
27795;DHT22;15176;50.844;4.412;2023-01-01T17:22:46;13.40;99.90
27795;DHT22;15176;50.844;4.412;2023-01-01T17:25:11;13.10;99.90
27795;DHT22;15176;50.844;4.412;2023-01-01T17:27:37;13.10;99.90
27795;DHT22;15176;50.844;4.412;2023-01-01T17:30:03;12.90;99.90
27795;DHT22;15176;50.844;4.412;2023-01-01T17:32:29;13.00;99.90
27795;DHT22;15176;50.844;4.412;2023-01-01T17:34:59;12.80;99.90
27795;DHT22;15176;50.844;4.412;2023-01-01T17:37:25;12.70;99.90
27795;DHT22;15176;50.844;4.412;2023-01-01T17:39:51;12.70;99.90
27795;DHT22;15176;50.844;4.412;2023-01-01T17:42:18;12.80;99.90
27795;DHT22;15176;50.844;4.412;2023-01-01T17:44:43;12.90;99.90
27795;DHT22;15176;50.844;4.412;2023-01-01T17:47:09;13.10;99.90
27795;DHT22;15176;50.844;4.412;2023-01-01T17:49:35;13.00;99.90
27795;DHT22;15176;50.844;4.412;2023-01-01T17:52:01;13.20;99.90
27795;DHT22;15176;50.844;4.412;2023-01-01T17:54:26;13.30;99.90
27795;DHT22;15176;50.844;4.412;2023-01-01T17:56:52;13.20;99.90
27795;DHT22;15176;50.844;4.412;2023-01-01T17:59:18;13.40;99.90
27795;DHT22;15176;50.844;4.412;2023-01-01T18:01:44;13.10;99.90
27795;DHT22;15176;50.844;4.412;2023-01-01T18:04:10;13.10;99.90
27795;DHT22;15176;50.844;4.412;2023-01-01T18:06:37;13.00;99.90
27795;DHT22;15176;50.844;4.412;2023-01-01T18:09:05;13.00;99.90
27795;DHT22;15176;50.844;4.412;2023-01-01T18:11:32;12.90;99.90